Aviation Digital Data Service (ADDS)

Output produced by METARs form (0539 UTC 25 February 2018)
found at http://aviationweather.gov/adds/metars/
 
METAR text: UKKM 250530Z AUTO 02003MPS 9000 // NCD M17/M18 Q1022
Conditions at: UKKM (GOSTOMEL' , UA) observed 0530 UTC 25 February 2018
Temperature: -17.0°C (1°F)
Dewpoint: -18.0°C (-0°F) [RH = 92%]
Pressure (altimeter): 30.18 inches Hg (1022.0 mb)
Winds: from the NNE (20 degrees) at 7 MPH (6 knots; 3.1 m/s)
Visibility: 6 miles (9 km)
Ceiling: at least 12,000 feet AGL
Clouds: sky clear below 12,000 feet AGL
Weather: no significant weather observed at this time

METAR text: UKKM 250500Z AUTO 02002MPS 7000 // NSC M16/M18 Q1022
Conditions at: UKKM (GOSTOMEL' , UA) observed 0500 UTC 25 February 2018
Temperature: -16.0°C (3°F)
Dewpoint: -18.0°C (-0°F) [RH = 85%]
Pressure (altimeter): 30.18 inches Hg (1022.0 mb)
Winds: from the NNE (20 degrees) at 5 MPH (4 knots; 2.1 m/s)
Visibility: 4 miles (7 km)
Ceiling: at least 12,000 feet AGL
Clouds: sky clear below 12,000 feet AGL
Weather: no significant weather observed at this time

METAR text: UKKM 250430Z AUTO 01002MPS 9999 // NCD M16/M18 Q1022
Conditions at: UKKM (GOSTOMEL' , UA) observed 0430 UTC 25 February 2018
Temperature: -16.0°C (3°F)
Dewpoint: -18.0°C (-0°F) [RH = 85%]
Pressure (altimeter): 30.18 inches Hg (1022.0 mb)
Winds: from the N (10 degrees) at 5 MPH (4 knots; 2.1 m/s)
Visibility: 6 or more miles (10+ km)
Ceiling: at least 12,000 feet AGL
Clouds: sky clear below 12,000 feet AGL
Weather: no significant weather observed at this time

METAR text: UKKM 250400Z AUTO 03003MPS 9999 // NSC M16/M18 Q1022
Conditions at: UKKM (GOSTOMEL' , UA) observed 0400 UTC 25 February 2018
Temperature: -16.0°C (3°F)
Dewpoint: -18.0°C (-0°F) [RH = 85%]
Pressure (altimeter): 30.18 inches Hg (1022.0 mb)
Winds: from the NNE (30 degrees) at 7 MPH (6 knots; 3.1 m/s)
Visibility: 6 or more miles (10+ km)
Ceiling: at least 12,000 feet AGL
Clouds: sky clear below 12,000 feet AGL
Weather: no significant weather observed at this time

METAR text: UKKM 250330Z AUTO 03003MPS 9999 // FEW096/// M15/M17 Q1022
Conditions at: UKKM (GOSTOMEL' , UA) observed 0330 UTC 25 February 2018
Temperature: -15.0°C (5°F)
Dewpoint: -17.0°C (1°F) [RH = 85%]
Pressure (altimeter): 30.18 inches Hg (1022.0 mb)
Winds: from the NNE (30 degrees) at 7 MPH (6 knots; 3.1 m/s)
Visibility: 6 or more miles (10+ km)
Ceiling: at least 12,000 feet AGL
Clouds: few clouds at 9600 feet AGL
Weather: no significant weather observed at this time

METAR text: UKKM 250300Z AUTO 03003MPS 9999 // FEW087/// M15/M17 Q1022
Conditions at: UKKM (GOSTOMEL' , UA) observed 0300 UTC 25 February 2018
Temperature: -15.0°C (5°F)
Dewpoint: -17.0°C (1°F) [RH = 85%]
Pressure (altimeter): 30.18 inches Hg (1022.0 mb)
Winds: from the NNE (30 degrees) at 7 MPH (6 knots; 3.1 m/s)
Visibility: 6 or more miles (10+ km)
Ceiling: at least 12,000 feet AGL
Clouds: few clouds at 8700 feet AGL
Weather: no significant weather observed at this time

METAR text: UKKM 250230Z AUTO 03003MPS 9999 // NSC M15/M17 Q1022
Conditions at: UKKM (GOSTOMEL' , UA) observed 0230 UTC 25 February 2018
Temperature: -15.0°C (5°F)
Dewpoint: -17.0°C (1°F) [RH = 85%]
Pressure (altimeter): 30.18 inches Hg (1022.0 mb)
Winds: from the NNE (30 degrees) at 7 MPH (6 knots; 3.1 m/s)
Visibility: 6 or more miles (10+ km)
Ceiling: at least 12,000 feet AGL
Clouds: sky clear below 12,000 feet AGL
Weather: no significant weather observed at this time

METAR text: UKKM 250200Z AUTO 03003MPS 9999 // NSC M15/M17 Q1022
Conditions at: UKKM (GOSTOMEL' , UA) observed 0200 UTC 25 February 2018
Temperature: -15.0°C (5°F)
Dewpoint: -17.0°C (1°F) [RH = 85%]
Pressure (altimeter): 30.18 inches Hg (1022.0 mb)
Winds: from the NNE (30 degrees) at 7 MPH (6 knots; 3.1 m/s)
Visibility: 6 or more miles (10+ km)
Ceiling: at least 12,000 feet AGL
Clouds: sky clear below 12,000 feet AGL
Weather: no significant weather observed at this time

METAR text: UKKM 250130Z AUTO 03003MPS 9999 // BKN084/// M15/M17 Q1022
Conditions at: UKKM (GOSTOMEL' , UA) observed 0130 UTC 25 February 2018
Temperature: -15.0°C (5°F)
Dewpoint: -17.0°C (1°F) [RH = 85%]
Pressure (altimeter): 30.18 inches Hg (1022.0 mb)
Winds: from the NNE (30 degrees) at 7 MPH (6 knots; 3.1 m/s)
Visibility: 6 or more miles (10+ km)
Ceiling: 8400 feet AGL
Clouds: broken clouds at 8400 feet AGL
Weather: no significant weather observed at this time

METAR text: UKKM 250100Z AUTO 03002MPS 9999 // SCT093/// M14/M16 Q1022
Conditions at: UKKM (GOSTOMEL' , UA) observed 0100 UTC 25 February 2018
Temperature: -14.0°C (7°F)
Dewpoint: -16.0°C (3°F) [RH = 85%]
Pressure (altimeter): 30.18 inches Hg (1022.0 mb)
Winds: from the NNE (30 degrees) at 5 MPH (4 knots; 2.1 m/s)
Visibility: 6 or more miles (10+ km)
Ceiling: at least 12,000 feet AGL
Clouds: scattered clouds at 9300 feet AGL
Weather: no significant weather observed at this time

METAR text: UKKM 250030Z AUTO 03002MPS 350V060 9999 // NSC M14/M16 Q1022
Conditions at: UKKM (GOSTOMEL' , UA) observed 0030 UTC 25 February 2018
Temperature: -14.0°C (7°F)
Dewpoint: -16.0°C (3°F) [RH = 85%]
Pressure (altimeter): 30.18 inches Hg (1022.0 mb)
Winds: from the NNE (30 degrees) at 5 MPH (4 knots; 2.1 m/s)
Visibility: 6 or more miles (10+ km)
Ceiling: at least 12,000 feet AGL
Clouds: sky clear below 12,000 feet AGL
Weather: no significant weather observed at this time

METAR text: UKKM 250000Z AUTO 04002MPS 010V080 8000 // NSC M13/M16 Q1022
Conditions at: UKKM (GOSTOMEL' , UA) observed 0000 UTC 25 February 2018
Temperature: -13.0°C (9°F)
Dewpoint: -16.0°C (3°F) [RH = 78%]
Pressure (altimeter): 30.18 inches Hg (1022.0 mb)
Winds: from the NE (40 degrees) at 5 MPH (4 knots; 2.1 m/s)
Visibility: 5 miles (8 km)
Ceiling: at least 12,000 feet AGL
Clouds: sky clear below 12,000 feet AGL
Weather: no significant weather observed at this time

METAR text: UKKM 242330Z AUTO 04003MPS 8000 // BKN066/// M12/M15 Q1021
Conditions at: UKKM (GOSTOMEL' , UA) observed 2330 UTC 24 February 2018
Temperature: -12.0°C (10°F)
Dewpoint: -15.0°C (5°F) [RH = 78%]
Pressure (altimeter): 30.15 inches Hg (1021.0 mb)
Winds: from the NE (40 degrees) at 7 MPH (6 knots; 3.1 m/s)
Visibility: 5 miles (8 km)
Ceiling: 6600 feet AGL
Clouds: broken clouds at 6600 feet AGL
Weather: no significant weather observed at this time

METAR text: UKKM 242300Z AUTO 04003MPS 7000 // BKN069/// M12/M15 Q1021
Conditions at: UKKM (GOSTOMEL' , UA) observed 2300 UTC 24 February 2018
Temperature: -12.0°C (10°F)
Dewpoint: -15.0°C (5°F) [RH = 78%]
Pressure (altimeter): 30.15 inches Hg (1021.0 mb)
Winds: from the NE (40 degrees) at 7 MPH (6 knots; 3.1 m/s)
Visibility: 4 miles (7 km)
Ceiling: 6900 feet AGL
Clouds: broken clouds at 6900 feet AGL
Weather: no significant weather observed at this time

METAR text: UKKM 242230Z AUTO 05004MPS 9999 // BKN062/// M12/M15 Q1021
Conditions at: UKKM (GOSTOMEL' , UA) observed 2230 UTC 24 February 2018
Temperature: -12.0°C (10°F)
Dewpoint: -15.0°C (5°F) [RH = 78%]
Pressure (altimeter): 30.15 inches Hg (1021.0 mb)
Winds: from the NE (50 degrees) at 9 MPH (8 knots; 4.2 m/s)
Visibility: 6 or more miles (10+ km)
Ceiling: 6200 feet AGL
Clouds: broken clouds at 6200 feet AGL
Weather: no significant weather observed at this time

METAR text: UKKM 242200Z AUTO 06003MPS 9999 // OVC067/// M11/M15 Q1021
Conditions at: UKKM (GOSTOMEL' , UA) observed 2200 UTC 24 February 2018
Temperature: -11.0°C (12°F)
Dewpoint: -15.0°C (5°F) [RH = 72%]
Pressure (altimeter): 30.15 inches Hg (1021.0 mb)
Winds: from the ENE (60 degrees) at 7 MPH (6 knots; 3.1 m/s)
Visibility: 6 or more miles (10+ km)
Ceiling: 6700 feet AGL
Clouds: overcast cloud deck at 6700 feet AGL
Weather: no significant weather observed at this time

METAR text: UKKM 242130Z AUTO 07004MPS 9999 -SN OVC068/// M11/M15 Q1021
Conditions at: UKKM (GOSTOMEL' , UA) observed 2130 UTC 24 February 2018
Temperature: -11.0°C (12°F)
Dewpoint: -15.0°C (5°F) [RH = 72%]
Pressure (altimeter): 30.15 inches Hg (1021.0 mb)
Winds: from the ENE (70 degrees) at 9 MPH (8 knots; 4.2 m/s)
Visibility: 6 or more miles (10+ km)
Ceiling: 6800 feet AGL
Clouds: overcast cloud deck at 6800 feet AGL
Weather: -SN  (light snow)

METAR text: UKKM 242100Z AUTO 06004MPS 7000 -SN OVC066/// M11/M13 Q1021
Conditions at: UKKM (GOSTOMEL' , UA) observed 2100 UTC 24 February 2018
Temperature: -11.0°C (12°F)
Dewpoint: -13.0°C (9°F) [RH = 85%]
Pressure (altimeter): 30.15 inches Hg (1021.0 mb)
Winds: from the ENE (60 degrees) at 9 MPH (8 knots; 4.2 m/s)
Visibility: 4 miles (7 km)
Ceiling: 6600 feet AGL
Clouds: overcast cloud deck at 6600 feet AGL
Weather: -SN  (light snow)

METAR text: UKKM 242030Z AUTO 06004MPS 030V090 9000 -SN OVC070/// M11/M13 Q1020
Conditions at: UKKM (GOSTOMEL' , UA) observed 2030 UTC 24 February 2018
Temperature: -11.0°C (12°F)
Dewpoint: -13.0°C (9°F) [RH = 85%]
Pressure (altimeter): 30.12 inches Hg (1020.0 mb)
Winds: from the ENE (60 degrees) at 9 MPH (8 knots; 4.2 m/s)
Visibility: 6 miles (9 km)
Ceiling: 7000 feet AGL
Clouds: overcast cloud deck at 7000 feet AGL
Weather: -SN  (light snow)

METAR text: UKKM 242000Z AUTO 08006MPS 050V110 6000 -SN OVC041/// M10/M13 Q1020
Conditions at: UKKM (GOSTOMEL' , UA) observed 2000 UTC 24 February 2018
Temperature: -10.0°C (14°F)
Dewpoint: -13.0°C (9°F) [RH = 79%]
Pressure (altimeter): 30.12 inches Hg (1020.0 mb)
Winds: from the E (80 degrees) at 14 MPH (12 knots; 6.2 m/s)
Visibility: 4 miles (6 km)
Ceiling: 4100 feet AGL
Clouds: overcast cloud deck at 4100 feet AGL
Weather: -SN  (light snow)

METAR text: UKKM 241930Z AUTO 07005MPS 7000 -SN OVC034/// M10/M13 Q1020
Conditions at: UKKM (GOSTOMEL' , UA) observed 1930 UTC 24 February 2018
Temperature: -10.0°C (14°F)
Dewpoint: -13.0°C (9°F) [RH = 79%]
Pressure (altimeter): 30.12 inches Hg (1020.0 mb)
Winds: from the ENE (70 degrees) at 12 MPH (10 knots; 5.2 m/s)
Visibility: 4 miles (7 km)
Ceiling: 3400 feet AGL
Clouds: overcast cloud deck at 3400 feet AGL
Weather: -SN  (light snow)

METAR text: UKKM 241900Z AUTO 06004MPS 010V090 5000 OVC044/// M10/M12 Q1020
Conditions at: UKKM (GOSTOMEL' , UA) observed 1900 UTC 24 February 2018
Temperature: -10.0°C (14°F)
Dewpoint: -12.0°C (10°F) [RH = 85%]
Pressure (altimeter): 30.12 inches Hg (1020.0 mb)
Winds: from the ENE (60 degrees) at 9 MPH (8 knots; 4.2 m/s)
Visibility: 3 miles (5 km)
Ceiling: 4400 feet AGL
Clouds: overcast cloud deck at 4400 feet AGL
Weather: no significant weather observed at this time

METAR text: UKKM 241830Z AUTO 07005MPS 6000 OVC042/// M10/M12 Q1019
Conditions at: UKKM (GOSTOMEL' , UA) observed 1830 UTC 24 February 2018
Temperature: -10.0°C (14°F)
Dewpoint: -12.0°C (10°F) [RH = 85%]
Pressure (altimeter): 30.09 inches Hg (1019.0 mb)
Winds: from the ENE (70 degrees) at 12 MPH (10 knots; 5.2 m/s)
Visibility: 4 miles (6 km)
Ceiling: 4200 feet AGL
Clouds: overcast cloud deck at 4200 feet AGL
Weather: no significant weather observed at this time

METAR text: UKKM 241800Z AUTO 07004MPS 6000 -SN OVC037/// M10/M11 Q1019
Conditions at: UKKM (GOSTOMEL' , UA) observed 1800 UTC 24 February 2018
Temperature: -10.0°C (14°F)
Dewpoint: -11.0°C (12°F) [RH = 92%]
Pressure (altimeter): 30.09 inches Hg (1019.0 mb)
Winds: from the ENE (70 degrees) at 9 MPH (8 knots; 4.2 m/s)
Visibility: 4 miles (6 km)
Ceiling: 3700 feet AGL
Clouds: overcast cloud deck at 3700 feet AGL
Weather: -SN  (light snow)

METAR text: UKKM 241730Z AUTO 06005MPS 010V090 5000 -SN OVC039/// M09/M11 Q1019
Conditions at: UKKM (GOSTOMEL' , UA) observed 1730 UTC 24 February 2018
Temperature: -9.0°C (16°F)
Dewpoint: -11.0°C (12°F) [RH = 85%]
Pressure (altimeter): 30.09 inches Hg (1019.0 mb)
Winds: from the ENE (60 degrees) at 12 MPH (10 knots; 5.2 m/s)
Visibility: 3 miles (5 km)
Ceiling: 3900 feet AGL
Clouds: overcast cloud deck at 3900 feet AGL
Weather: -SN  (light snow)

METAR text: UKKM 241700Z AUTO 07005MPS 5000 -SN OVC039/// M09/M11 Q1019
Conditions at: UKKM (GOSTOMEL' , UA) observed 1700 UTC 24 February 2018
Temperature: -9.0°C (16°F)
Dewpoint: -11.0°C (12°F) [RH = 85%]
Pressure (altimeter): 30.09 inches Hg (1019.0 mb)
Winds: from the ENE (70 degrees) at 12 MPH (10 knots; 5.2 m/s)
Visibility: 3 miles (5 km)
Ceiling: 3900 feet AGL
Clouds: overcast cloud deck at 3900 feet AGL
Weather: -SN  (light snow)

METAR text: UKKM 241630Z AUTO 07006MPS 030V090 4600 -SN OVC044/// M09/M11 Q1018
Conditions at: UKKM (GOSTOMEL' , UA) observed 1630 UTC 24 February 2018
Temperature: -9.0°C (16°F)
Dewpoint: -11.0°C (12°F) [RH = 85%]
Pressure (altimeter): 30.06 inches Hg (1018.0 mb)
Winds: from the ENE (70 degrees) at 14 MPH (12 knots; 6.2 m/s)
Visibility: 2.86 miles (4.60 km)
Ceiling: 4400 feet AGL
Clouds: overcast cloud deck at 4400 feet AGL
Weather: -SN  (light snow)

METAR text: UKKM 241600Z AUTO 08005MPS 5000 -SN OVC011/// M08/M09 Q1018
Conditions at: UKKM (GOSTOMEL' , UA) observed 1600 UTC 24 February 2018
Temperature: -8.0°C (18°F)
Dewpoint: -9.0°C (16°F) [RH = 92%]
Pressure (altimeter): 30.06 inches Hg (1018.0 mb)
Winds: from the E (80 degrees) at 12 MPH (10 knots; 5.2 m/s)
Visibility: 3 miles (5 km)
Ceiling: 1100 feet AGL
Clouds: overcast cloud deck at 1100 feet AGL
Weather: -SN  (light snow)

METAR text: UKKM 241530Z AUTO 07004MPS 040V100 1900 SN OVC029/// M07/M09 Q1017
Conditions at: UKKM (GOSTOMEL' , UA) observed 1530 UTC 24 February 2018
Temperature: -7.0°C (19°F)
Dewpoint: -9.0°C (16°F) [RH = 86%]
Pressure (altimeter): 30.03 inches Hg (1017.0 mb)
Winds: from the ENE (70 degrees) at 9 MPH (8 knots; 4.2 m/s)
Visibility: 1.18 miles (1.90 km)
Ceiling: 2900 feet AGL
Clouds: overcast cloud deck at 2900 feet AGL
Weather: SN  (snow)

METAR text: UKKM 241500Z AUTO 07004MPS 2800 -SN OVC013/// M07/M08 Q1017
Conditions at: UKKM (GOSTOMEL' , UA) observed 1500 UTC 24 February 2018
Temperature: -7.0°C (19°F)
Dewpoint: -8.0°C (18°F) [RH = 93%]
Pressure (altimeter): 30.03 inches Hg (1017.0 mb)
Winds: from the ENE (70 degrees) at 9 MPH (8 knots; 4.2 m/s)
Visibility: 1.74 miles (2.80 km)
Ceiling: 1300 feet AGL
Clouds: overcast cloud deck at 1300 feet AGL
Weather: -SN  (light snow)

METAR text: UKKM 241430Z AUTO 07005MPS 1900 SN OVC011/// M07/M08 Q1017
Conditions at: UKKM (GOSTOMEL' , UA) observed 1430 UTC 24 February 2018
Temperature: -7.0°C (19°F)
Dewpoint: -8.0°C (18°F) [RH = 93%]
Pressure (altimeter): 30.03 inches Hg (1017.0 mb)
Winds: from the ENE (70 degrees) at 12 MPH (10 knots; 5.2 m/s)
Visibility: 1.18 miles (1.90 km)
Ceiling: 1100 feet AGL
Clouds: overcast cloud deck at 1100 feet AGL
Weather: SN  (snow)

METAR text: UKKM 241400Z AUTO 07003MPS 2400 -SN OVC013/// M07/M08 Q1017
Conditions at: UKKM (GOSTOMEL' , UA) observed 1400 UTC 24 February 2018
Temperature: -7.0°C (19°F)
Dewpoint: -8.0°C (18°F) [RH = 93%]
Pressure (altimeter): 30.03 inches Hg (1017.0 mb)
Winds: from the ENE (70 degrees) at 7 MPH (6 knots; 3.1 m/s)
Visibility: 1.49 miles (2.40 km)
Ceiling: 1300 feet AGL
Clouds: overcast cloud deck at 1300 feet AGL
Weather: -SN  (light snow)

METAR text: UKKM 241330Z AUTO 08004MPS 040V100 1700 SN OVC028/// M07/M08 Q1017
Conditions at: UKKM (GOSTOMEL' , UA) observed 1330 UTC 24 February 2018
Temperature: -7.0°C (19°F)
Dewpoint: -8.0°C (18°F) [RH = 93%]
Pressure (altimeter): 30.03 inches Hg (1017.0 mb)
Winds: from the E (80 degrees) at 9 MPH (8 knots; 4.2 m/s)
Visibility: 1.06 miles (1.71 km)
Ceiling: 2800 feet AGL
Clouds: overcast cloud deck at 2800 feet AGL
Weather: SN  (snow)

METAR text: UKKM 241300Z AUTO 09005MPS 0800 0750NE +SN OVC007/// M07/M08 Q1017
Conditions at: UKKM (GOSTOMEL' , UA) observed 1300 UTC 24 February 2018
Temperature: -7.0°C (19°F)
Dewpoint: -8.0°C (18°F) [RH = 93%]
Pressure (altimeter): 30.03 inches Hg (1017.0 mb)
Winds: from the E (90 degrees) at 12 MPH (10 knots; 5.2 m/s)
Visibility: 0.50 miles (0.80 km)
Ceiling: 700 feet AGL
Clouds: overcast cloud deck at 700 feet AGL
Weather: +SN  (heavy snow)

METAR text: UKKM 241230Z AUTO 08005MPS 1900 SN OVC012/// M06/M08 Q1016
Conditions at: UKKM (GOSTOMEL' , UA) observed 1230 UTC 24 February 2018
Temperature: -6.0°C (21°F)
Dewpoint: -8.0°C (18°F) [RH = 86%]
Pressure (altimeter): 30.00 inches Hg (1016.0 mb)
Winds: from the E (80 degrees) at 12 MPH (10 knots; 5.2 m/s)
Visibility: 1.18 miles (1.90 km)
Ceiling: 1200 feet AGL
Clouds: overcast cloud deck at 1200 feet AGL
Weather: SN  (snow)

METAR text: UKKM 241200Z AUTO 08003MPS 1700 1200NE SN OVC014/// M06/M08 Q1016
Conditions at: UKKM (GOSTOMEL' , UA) observed 1200 UTC 24 February 2018
Temperature: -6.0°C (21°F)
Dewpoint: -8.0°C (18°F) [RH = 86%]
Pressure (altimeter): 30.00 inches Hg (1016.0 mb)
Winds: from the E (80 degrees) at 7 MPH (6 knots; 3.1 m/s)
Visibility: 1.06 miles (1.71 km)
Ceiling: 1400 feet AGL
Clouds: overcast cloud deck at 1400 feet AGL
Weather: SN  (snow)

METAR text: UKKM 241130Z AUTO 06003MPS 030V090 1000 0900NE +SN OVC011/// M06/M08 Q1016
Conditions at: UKKM (GOSTOMEL' , UA) observed 1130 UTC 24 February 2018
Temperature: -6.0°C (21°F)
Dewpoint: -8.0°C (18°F) [RH = 86%]
Pressure (altimeter): 30.00 inches Hg (1016.0 mb)
Winds: from the ENE (60 degrees) at 7 MPH (6 knots; 3.1 m/s)
Visibility: 0.62 miles (1.00 km)
Ceiling: 1100 feet AGL
Clouds: overcast cloud deck at 1100 feet AGL
Weather: +SN  (heavy snow)

METAR text: UKKM 241100Z AUTO 06003MPS 030V100 0550 0500NE +SN OVC007/// M07/M08 Q1017
Conditions at: UKKM (GOSTOMEL' , UA) observed 1100 UTC 24 February 2018
Temperature: -7.0°C (19°F)
Dewpoint: -8.0°C (18°F) [RH = 93%]
Pressure (altimeter): 30.03 inches Hg (1017.0 mb)
Winds: from the ENE (60 degrees) at 7 MPH (6 knots; 3.1 m/s)
Visibility: 0.34 miles (0.55 km)
Ceiling: 700 feet AGL
Clouds: overcast cloud deck at 700 feet AGL
Weather: +SN  (heavy snow)

METAR text: UKKM 241030Z AUTO 06003MPS 0700 0650NE +SN OVC008/// M07/M09 Q1017
Conditions at: UKKM (GOSTOMEL' , UA) observed 1030 UTC 24 February 2018
Temperature: -7.0°C (19°F)
Dewpoint: -9.0°C (16°F) [RH = 86%]
Pressure (altimeter): 30.03 inches Hg (1017.0 mb)
Winds: from the ENE (60 degrees) at 7 MPH (6 knots; 3.1 m/s)
Visibility: 0.43 miles (0.69 km)
Ceiling: 800 feet AGL
Clouds: overcast cloud deck at 800 feet AGL
Weather: +SN  (heavy snow)

METAR text: UKKM 241000Z AUTO 07003MPS 040V100 1100 SN OVC010/// M07/M09 Q1017
Conditions at: UKKM (GOSTOMEL' , UA) observed 1000 UTC 24 February 2018
Temperature: -7.0°C (19°F)
Dewpoint: -9.0°C (16°F) [RH = 86%]
Pressure (altimeter): 30.03 inches Hg (1017.0 mb)
Winds: from the ENE (70 degrees) at 7 MPH (6 knots; 3.1 m/s)
Visibility: 0.68 miles (1.09 km)
Ceiling: 1000 feet AGL
Clouds: overcast cloud deck at 1000 feet AGL
Weather: SN  (snow)

METAR text: UKKM 240930Z AUTO 08004MPS 0650 +SN OVC009/// M07/M09 Q1017
Conditions at: UKKM (GOSTOMEL' , UA) observed 0930 UTC 24 February 2018
Temperature: -7.0°C (19°F)
Dewpoint: -9.0°C (16°F) [RH = 86%]
Pressure (altimeter): 30.03 inches Hg (1017.0 mb)
Winds: from the E (80 degrees) at 9 MPH (8 knots; 4.2 m/s)
Visibility: 0.40 miles (0.64 km)
Ceiling: 900 feet AGL
Clouds: overcast cloud deck at 900 feet AGL
Weather: +SN  (heavy snow)

METAR text: UKKM 240900Z AUTO 07004MPS 2000 SN ///013/// M08/M09 Q1017
Conditions at: UKKM (GOSTOMEL' , UA) observed 0900 UTC 24 February 2018
Temperature: -8.0°C (18°F)
Dewpoint: -9.0°C (16°F) [RH = 92%]
Pressure (altimeter): 30.03 inches Hg (1017.0 mb)
Winds: from the ENE (70 degrees) at 9 MPH (8 knots; 4.2 m/s)
Visibility: 1.24 miles (2.00 km)
Ceiling: unknown
Clouds: missing
Weather: SN  (snow)

METAR text: UKKM 240830Z AUTO 07003MPS 030V110 2300 -SN ///026/// M08/M10 Q1017
Conditions at: UKKM (GOSTOMEL' , UA) observed 0830 UTC 24 February 2018
Temperature: -8.0°C (18°F)
Dewpoint: -10.0°C (14°F) [RH = 85%]
Pressure (altimeter): 30.03 inches Hg (1017.0 mb)
Winds: from the ENE (70 degrees) at 7 MPH (6 knots; 3.1 m/s)
Visibility: 1.43 miles (2.30 km)
Ceiling: unknown
Clouds: missing
Weather: -SN  (light snow)

METAR text: UKKM 240800Z AUTO 08004MPS 2400 -SN ///012/// M08/M10 Q1017
Conditions at: UKKM (GOSTOMEL' , UA) observed 0800 UTC 24 February 2018
Temperature: -8.0°C (18°F)
Dewpoint: -10.0°C (14°F) [RH = 85%]
Pressure (altimeter): 30.03 inches Hg (1017.0 mb)
Winds: from the E (80 degrees) at 9 MPH (8 knots; 4.2 m/s)
Visibility: 1.49 miles (2.40 km)
Ceiling: unknown
Clouds: missing
Weather: -SN  (light snow)

METAR text: UKKM 240730Z AUTO 08004MPS 3200 -SN OVC019/// M08/M10 Q1017
Conditions at: UKKM (GOSTOMEL' , UA) observed 0730 UTC 24 February 2018
Temperature: -8.0°C (18°F)
Dewpoint: -10.0°C (14°F) [RH = 85%]
Pressure (altimeter): 30.03 inches Hg (1017.0 mb)
Winds: from the E (80 degrees) at 9 MPH (8 knots; 4.2 m/s)
Visibility: 1.99 miles (3.20 km)
Ceiling: 1900 feet AGL
Clouds: overcast cloud deck at 1900 feet AGL
Weather: -SN  (light snow)

METAR text: UKKM 240700Z AUTO 08003MPS 040V110 2600 -SN OVC030/// M08/M10 Q1017
Conditions at: UKKM (GOSTOMEL' , UA) observed 0700 UTC 24 February 2018
Temperature: -8.0°C (18°F)
Dewpoint: -10.0°C (14°F) [RH = 85%]
Pressure (altimeter): 30.03 inches Hg (1017.0 mb)
Winds: from the E (80 degrees) at 7 MPH (6 knots; 3.1 m/s)
Visibility: 1.62 miles (2.61 km)
Ceiling: 3000 feet AGL
Clouds: overcast cloud deck at 3000 feet AGL
Weather: -SN  (light snow)

METAR text: UKKM 240630Z AUTO 07004MPS 1600 SN OVC025/// M08/M09 Q1017
Conditions at: UKKM (GOSTOMEL' , UA) observed 0630 UTC 24 February 2018
Temperature: -8.0°C (18°F)
Dewpoint: -9.0°C (16°F) [RH = 92%]
Pressure (altimeter): 30.03 inches Hg (1017.0 mb)
Winds: from the ENE (70 degrees) at 9 MPH (8 knots; 4.2 m/s)
Visibility: 0.99 miles (1.59 km)
Ceiling: 2500 feet AGL
Clouds: overcast cloud deck at 2500 feet AGL
Weather: SN  (snow)

METAR text: UKKM 240600Z AUTO 06003MPS 030V090 1500 1300NE SN OVC020/// M08/M09 Q1017
Conditions at: UKKM (GOSTOMEL' , UA) observed 0600 UTC 24 February 2018
Temperature: -8.0°C (18°F)
Dewpoint: -9.0°C (16°F) [RH = 92%]
Pressure (altimeter): 30.03 inches Hg (1017.0 mb)
Winds: from the ENE (60 degrees) at 7 MPH (6 knots; 3.1 m/s)
Visibility: 0.93 miles (1.50 km)
Ceiling: 2000 feet AGL
Clouds: overcast cloud deck at 2000 feet AGL
Weather: SN  (snow)

METAR text: UKKM 240530Z AUTO 06003MPS 1600 SN OVC020/// M08/M09 Q1017
Conditions at: UKKM (GOSTOMEL' , UA) observed 0530 UTC 24 February 2018
Temperature: -8.0°C (18°F)
Dewpoint: -9.0°C (16°F) [RH = 92%]
Pressure (altimeter): 30.03 inches Hg (1017.0 mb)
Winds: from the ENE (60 degrees) at 7 MPH (6 knots; 3.1 m/s)
Visibility: 0.99 miles (1.59 km)
Ceiling: 2000 feet AGL
Clouds: overcast cloud deck at 2000 feet AGL
Weather: SN  (snow)

METAR text: UKKM 240500Z AUTO 06003MPS 2200 -SN OVC013/// M08/M09 Q1017
Conditions at: UKKM (GOSTOMEL' , UA) observed 0500 UTC 24 February 2018
Temperature: -8.0°C (18°F)
Dewpoint: -9.0°C (16°F) [RH = 92%]
Pressure (altimeter): 30.03 inches Hg (1017.0 mb)
Winds: from the ENE (60 degrees) at 7 MPH (6 knots; 3.1 m/s)
Visibility: 1.37 miles (2.20 km)
Ceiling: 1300 feet AGL
Clouds: overcast cloud deck at 1300 feet AGL
Weather: -SN  (light snow)

METAR text: UKKM 240430Z AUTO 06002MPS 3600 -SN OVC029/// M08/M09 Q1017
Conditions at: UKKM (GOSTOMEL' , UA) observed 0430 UTC 24 February 2018
Temperature: -8.0°C (18°F)
Dewpoint: -9.0°C (16°F) [RH = 92%]
Pressure (altimeter): 30.03 inches Hg (1017.0 mb)
Winds: from the ENE (60 degrees) at 5 MPH (4 knots; 2.1 m/s)
Visibility: 2.24 miles (3.60 km)
Ceiling: 2900 feet AGL
Clouds: overcast cloud deck at 2900 feet AGL
Weather: -SN  (light snow)

METAR text: UKKM 240400Z AUTO 06002MPS 3500 -SN OVC026/// M08/M09 Q1017
Conditions at: UKKM (GOSTOMEL' , UA) observed 0400 UTC 24 February 2018
Temperature: -8.0°C (18°F)
Dewpoint: -9.0°C (16°F) [RH = 92%]
Pressure (altimeter): 30.03 inches Hg (1017.0 mb)
Winds: from the ENE (60 degrees) at 5 MPH (4 knots; 2.1 m/s)
Visibility: 2.17 miles (3.49 km)
Ceiling: 2600 feet AGL
Clouds: overcast cloud deck at 2600 feet AGL
Weather: -SN  (light snow)

METAR text: UKKM 240330Z AUTO 07003MPS 3000 -SN OVC027/// M07/M09 Q1017
Conditions at: UKKM (GOSTOMEL' , UA) observed 0330 UTC 24 February 2018
Temperature: -7.0°C (19°F)
Dewpoint: -9.0°C (16°F) [RH = 86%]
Pressure (altimeter): 30.03 inches Hg (1017.0 mb)
Winds: from the ENE (70 degrees) at 7 MPH (6 knots; 3.1 m/s)
Visibility: 1.86 miles (2.99 km)
Ceiling: 2700 feet AGL
Clouds: overcast cloud deck at 2700 feet AGL
Weather: -SN  (light snow)

METAR text: UKKM 240300Z AUTO 08003MPS 3200 -SN OVC021/// M08/M09 Q1017
Conditions at: UKKM (GOSTOMEL' , UA) observed 0300 UTC 24 February 2018
Temperature: -8.0°C (18°F)
Dewpoint: -9.0°C (16°F) [RH = 92%]
Pressure (altimeter): 30.03 inches Hg (1017.0 mb)
Winds: from the E (80 degrees) at 7 MPH (6 knots; 3.1 m/s)
Visibility: 1.99 miles (3.20 km)
Ceiling: 2100 feet AGL
Clouds: overcast cloud deck at 2100 feet AGL
Weather: -SN  (light snow)

METAR text: UKKM 240230Z AUTO 07003MPS 050V110 2700 -SN OVC022/// M07/M08 Q1017
Conditions at: UKKM (GOSTOMEL' , UA) observed 0230 UTC 24 February 2018
Temperature: -7.0°C (19°F)
Dewpoint: -8.0°C (18°F) [RH = 93%]
Pressure (altimeter): 30.03 inches Hg (1017.0 mb)
Winds: from the ENE (70 degrees) at 7 MPH (6 knots; 3.1 m/s)
Visibility: 1.68 miles (2.70 km)
Ceiling: 2200 feet AGL
Clouds: overcast cloud deck at 2200 feet AGL
Weather: -SN  (light snow)

METAR text: UKKM 240200Z AUTO 06003MPS 2700 -SN OVC020/// M07/M08 Q1017
Conditions at: UKKM (GOSTOMEL' , UA) observed 0200 UTC 24 February 2018
Temperature: -7.0°C (19°F)
Dewpoint: -8.0°C (18°F) [RH = 93%]
Pressure (altimeter): 30.03 inches Hg (1017.0 mb)
Winds: from the ENE (60 degrees) at 7 MPH (6 knots; 3.1 m/s)
Visibility: 1.68 miles (2.70 km)
Ceiling: 2000 feet AGL
Clouds: overcast cloud deck at 2000 feet AGL
Weather: -SN  (light snow)

METAR text: UKKM 240130Z AUTO 06002MPS 030V090 2400 -SN OVC020/// M07/M08 Q1018
Conditions at: UKKM (GOSTOMEL' , UA) observed 0130 UTC 24 February 2018
Temperature: -7.0°C (19°F)
Dewpoint: -8.0°C (18°F) [RH = 93%]
Pressure (altimeter): 30.06 inches Hg (1018.0 mb)
Winds: from the ENE (60 degrees) at 5 MPH (4 knots; 2.1 m/s)
Visibility: 1.49 miles (2.40 km)
Ceiling: 2000 feet AGL
Clouds: overcast cloud deck at 2000 feet AGL
Weather: -SN  (light snow)

METAR text: UKKM 240100Z AUTO 07002MPS 1300 OVC016/// M07/M08 Q1018
Conditions at: UKKM (GOSTOMEL' , UA) observed 0100 UTC 24 February 2018
Temperature: -7.0°C (19°F)
Dewpoint: -8.0°C (18°F) [RH = 93%]
Pressure (altimeter): 30.06 inches Hg (1018.0 mb)
Winds: from the ENE (70 degrees) at 5 MPH (4 knots; 2.1 m/s)
Visibility: 0.81 miles (1.30 km)
Ceiling: 1600 feet AGL
Clouds: overcast cloud deck at 1600 feet AGL
Weather: no significant weather observed at this time

METAR text: UKKM 240030Z AUTO 08002MPS 050V110 2700 -SN OVC016/// M07/M08 Q1018
Conditions at: UKKM (GOSTOMEL' , UA) observed 0030 UTC 24 February 2018
Temperature: -7.0°C (19°F)
Dewpoint: -8.0°C (18°F) [RH = 93%]
Pressure (altimeter): 30.06 inches Hg (1018.0 mb)
Winds: from the E (80 degrees) at 5 MPH (4 knots; 2.1 m/s)
Visibility: 1.68 miles (2.70 km)
Ceiling: 1600 feet AGL
Clouds: overcast cloud deck at 1600 feet AGL
Weather: -SN  (light snow)

METAR text: UKKM 240000Z AUTO 07002MPS 050V110 4500 -SN OVC020/// M07/M10 Q1019
Conditions at: UKKM (GOSTOMEL' , UA) observed 0000 UTC 24 February 2018
Temperature: -7.0°C (19°F)
Dewpoint: -10.0°C (14°F) [RH = 79%]
Pressure (altimeter): 30.09 inches Hg (1019.0 mb)
Winds: from the ENE (70 degrees) at 5 MPH (4 knots; 2.1 m/s)
Visibility: 2.80 miles (4.51 km)
Ceiling: 2000 feet AGL
Clouds: overcast cloud deck at 2000 feet AGL
Weather: -SN  (light snow)

METAR text: UKKM 232330Z AUTO 08002MPS 7000 -SN OVC043/// M06/M11 Q1019
Conditions at: UKKM (GOSTOMEL' , UA) observed 2330 UTC 23 February 2018
Temperature: -6.0°C (21°F)
Dewpoint: -11.0°C (12°F) [RH = 68%]
Pressure (altimeter): 30.09 inches Hg (1019.0 mb)
Winds: from the E (80 degrees) at 5 MPH (4 knots; 2.1 m/s)
Visibility: 4 miles (7 km)
Ceiling: 4300 feet AGL
Clouds: overcast cloud deck at 4300 feet AGL
Weather: -SN  (light snow)

METAR text: UKKM 232300Z AUTO 07002MPS 030V110 9999 -SN OVC044/// M06/M12 Q1019
Conditions at: UKKM (GOSTOMEL' , UA) observed 2300 UTC 23 February 2018
Temperature: -6.0°C (21°F)
Dewpoint: -12.0°C (10°F) [RH = 62%]
Pressure (altimeter): 30.09 inches Hg (1019.0 mb)
Winds: from the ENE (70 degrees) at 5 MPH (4 knots; 2.1 m/s)
Visibility: 6 or more miles (10+ km)
Ceiling: 4400 feet AGL
Clouds: overcast cloud deck at 4400 feet AGL
Weather: -SN  (light snow)

METAR text: UKKM 232230Z AUTO 09003MPS 9999 -SN OVC055/// M06/M12 Q1019
Conditions at: UKKM (GOSTOMEL' , UA) observed 2230 UTC 23 February 2018
Temperature: -6.0°C (21°F)
Dewpoint: -12.0°C (10°F) [RH = 62%]
Pressure (altimeter): 30.09 inches Hg (1019.0 mb)
Winds: from the E (90 degrees) at 7 MPH (6 knots; 3.1 m/s)
Visibility: 6 or more miles (10+ km)
Ceiling: 5500 feet AGL
Clouds: overcast cloud deck at 5500 feet AGL
Weather: -SN  (light snow)

METAR text: UKKM 232200Z AUTO 09002MPS 9999 -SN OVC061/// M05/M11 Q1019
Conditions at: UKKM (GOSTOMEL' , UA) observed 2200 UTC 23 February 2018
Temperature: -5.0°C (23°F)
Dewpoint: -11.0°C (12°F) [RH = 63%]
Pressure (altimeter): 30.09 inches Hg (1019.0 mb)
Winds: from the E (90 degrees) at 5 MPH (4 knots; 2.1 m/s)
Visibility: 6 or more miles (10+ km)
Ceiling: 6100 feet AGL
Clouds: overcast cloud deck at 6100 feet AGL
Weather: -SN  (light snow)

METAR text: UKKM 232130Z AUTO 09002MPS 9999 // OVC066/// M05/M12 Q1019
Conditions at: UKKM (GOSTOMEL' , UA) observed 2130 UTC 23 February 2018
Temperature: -5.0°C (23°F)
Dewpoint: -12.0°C (10°F) [RH = 58%]
Pressure (altimeter): 30.09 inches Hg (1019.0 mb)
Winds: from the E (90 degrees) at 5 MPH (4 knots; 2.1 m/s)
Visibility: 6 or more miles (10+ km)
Ceiling: 6600 feet AGL
Clouds: overcast cloud deck at 6600 feet AGL
Weather: no significant weather observed at this time

METAR text: UKKM 232100Z AUTO 08002MPS 9999 // OVC062/// M05/M12 Q1020
Conditions at: UKKM (GOSTOMEL' , UA) observed 2100 UTC 23 February 2018
Temperature: -5.0°C (23°F)
Dewpoint: -12.0°C (10°F) [RH = 58%]
Pressure (altimeter): 30.12 inches Hg (1020.0 mb)
Winds: from the E (80 degrees) at 5 MPH (4 knots; 2.1 m/s)
Visibility: 6 or more miles (10+ km)
Ceiling: 6200 feet AGL
Clouds: overcast cloud deck at 6200 feet AGL
Weather: no significant weather observed at this time

METAR text: UKKM 232030Z AUTO 09002MPS 9999 // OVC047/// M05/M11 Q1020
Conditions at: UKKM (GOSTOMEL' , UA) observed 2030 UTC 23 February 2018
Temperature: -5.0°C (23°F)
Dewpoint: -11.0°C (12°F) [RH = 63%]
Pressure (altimeter): 30.12 inches Hg (1020.0 mb)
Winds: from the E (90 degrees) at 5 MPH (4 knots; 2.1 m/s)
Visibility: 6 or more miles (10+ km)
Ceiling: 4700 feet AGL
Clouds: overcast cloud deck at 4700 feet AGL
Weather: no significant weather observed at this time

METAR text: UKKM 232000Z AUTO 09003MPS 9999 // OVC047/// M05/M11 Q1020
Conditions at: UKKM (GOSTOMEL' , UA) observed 2000 UTC 23 February 2018
Temperature: -5.0°C (23°F)
Dewpoint: -11.0°C (12°F) [RH = 63%]
Pressure (altimeter): 30.12 inches Hg (1020.0 mb)
Winds: from the E (90 degrees) at 7 MPH (6 knots; 3.1 m/s)
Visibility: 6 or more miles (10+ km)
Ceiling: 4700 feet AGL
Clouds: overcast cloud deck at 4700 feet AGL
Weather: no significant weather observed at this time

METAR text: UKKM 231930Z AUTO 10003MPS 9999
Conditions at: UKKM (GOSTOMEL' , UA) observed 1930 UTC 23 February 2018
Temperature: missing
Dewpoint: missing
Pressure (altimeter): missing
Winds: from the E (100 degrees) at 7 MPH (6 knots; 3.1 m/s)
Visibility: 6 or more miles (10+ km)
Ceiling: unknown
Clouds: missing
Weather: no significant weather observed at this time

METAR text: UKKM 231900Z AUTO 10002MPS 9999
Conditions at: UKKM (GOSTOMEL' , UA) observed 1900 UTC 23 February 2018
Temperature: missing
Dewpoint: missing
Pressure (altimeter): missing
Winds: from the E (100 degrees) at 5 MPH (4 knots; 2.1 m/s)
Visibility: 6 or more miles (10+ km)
Ceiling: unknown
Clouds: missing
Weather: no significant weather observed at this time

METAR text: UKKM 231830Z AUTO 07003MPS 040V100 9999
Conditions at: UKKM (GOSTOMEL' , UA) observed 1830 UTC 23 February 2018
Temperature: missing
Dewpoint: missing
Pressure (altimeter): missing
Winds: from the ENE (70 degrees) at 7 MPH (6 knots; 3.1 m/s)
Visibility: 6 or more miles (10+ km)
Ceiling: unknown
Clouds: missing
Weather: no significant weather observed at this time

METAR text: UKKM 231800Z AUTO 06003MPS 030V090 9999 // BKN038/// M05/M09 Q1021
Conditions at: UKKM (GOSTOMEL' , UA) observed 1800 UTC 23 February 2018
Temperature: -5.0°C (23°F)
Dewpoint: -9.0°C (16°F) [RH = 73%]
Pressure (altimeter): 30.15 inches Hg (1021.0 mb)
Winds: from the ENE (60 degrees) at 7 MPH (6 knots; 3.1 m/s)
Visibility: 6 or more miles (10+ km)
Ceiling: 3800 feet AGL
Clouds: broken clouds at 3800 feet AGL
Weather: no significant weather observed at this time